Gasburg, Virginia
Current Conditions -  °F | °C
As of 6:16 AM on Wednesday 26 Nov 2014 (Local Time) from KAVC Reporting Station
Overcast Overcast  
Wind Chill:   Ceiling: 500
Heat Index:   Visibility: 5mi
Dew Point:   Wind: 10mph
Humidity: 96%   Direction: 30°NNE
Pressure: 29.98"   Gusts: 22mph
Location:  36.58°N, 77.88°W
Report Text: KAVC 261116Z AUTO 03009G19KT 5SM OVC005 06/06 A2998 RMK AO2 P0009 T00620056
Loading
Personal Weather Stations






























Interactive Weather Map New forecast layout! Learn more

10-Day Weather Forecast

Advertisements
Track Severe Weather on mobile